createdAt,value
2018-08-03T00:00:40.357Z,83.20
2018-08-03T00:03:21.487Z,83.10
2018-08-03T00:06:03.207Z,82.90
2018-08-03T00:08:45.017Z,82.50
2018-08-03T00:11:26.729Z,82.00
2018-08-03T00:14:08.571Z,81.80
2018-08-03T00:16:50.873Z,81.00
2018-08-03T00:19:31.967Z,80.50
2018-08-03T00:22:13.401Z,79.30
2018-08-03T00:24:55.163Z,78.90
2018-08-03T00:27:36.853Z,78.10
2018-08-03T00:30:19.319Z,77.90
2018-08-03T00:33:00.299Z,77.10
2018-08-03T00:35:42.007Z,77.30
2018-08-03T00:38:22.719Z,77.20
2018-08-03T00:41:03.372Z,77.10
2018-08-03T00:43:44.201Z,77.10
2018-08-03T00:46:25.733Z,77.10
2018-08-03T00:49:06.437Z,76.80
2018-08-03T00:51:48.152Z,76.30
2018-08-03T00:54:29.809Z,76.20
2018-08-03T00:57:10.738Z,76.20
2018-08-03T00:59:52.521Z,75.90
2018-08-03T01:02:34.129Z,76.00
2018-08-03T01:05:15.544Z,76.00
2018-08-03T01:07:56.354Z,75.50
2018-08-03T01:10:38.114Z,75.10
2018-08-03T01:16:01.500Z,72.90
2018-08-03T01:18:44.209Z,71.50
2018-08-03T01:21:25.955Z,72.40
2018-08-03T01:24:07.541Z,71.70
2018-08-03T01:26:49.176Z,70.40
2018-08-03T01:29:30.107Z,70.10
2018-08-03T01:32:10.831Z,69.90
2018-08-03T01:34:51.701Z,69.50
2018-08-03T01:37:33.262Z,70.00
2018-08-03T01:40:14.932Z,69.80
2018-08-03T01:42:56.641Z,69.00
2018-08-03T01:45:37.850Z,68.40
2018-08-03T01:48:19.582Z,68.20
2018-08-03T01:51:01.175Z,68.30
2018-08-03T01:53:42.297Z,69.30
2018-08-03T01:56:23.614Z,68.90
2018-08-03T01:59:05.403Z,69.20
2018-08-03T02:01:46.863Z,69.80
2018-08-03T02:04:27.701Z,70.80
2018-08-03T02:07:09.175Z,70.70
2018-08-03T02:09:50.882Z,71.40
2018-08-03T02:12:32.308Z,72.10
2018-08-03T02:15:13.897Z,73.10
2018-08-03T02:17:55.751Z,73.90
2018-08-03T02:20:36.855Z,75.00
2018-08-03T02:23:18.462Z,75.70
2018-08-03T02:25:59.833Z,74.90
2018-08-03T02:28:40.873Z,74.50
2018-08-03T02:31:22.316Z,74.70
2018-08-03T02:34:04.099Z,73.70
2018-08-03T02:36:45.724Z,73.90
2018-08-03T02:39:27.476Z,74.00
2018-08-03T02:42:08.347Z,73.70
2018-08-03T02:44:49.850Z,73.80
2018-08-03T02:47:30.724Z,73.50
2018-08-03T02:50:11.484Z,72.50
2018-08-03T02:52:53.606Z,72.50
2018-08-03T02:55:34.863Z,72.00
2018-08-03T02:58:16.437Z,71.50
2018-08-03T03:00:57.262Z,71.20
2018-08-03T03:03:38.296Z,71.10
2018-08-03T03:06:20.061Z,70.70
2018-08-03T03:09:01.003Z,70.80
2018-08-03T03:11:41.899Z,70.80
2018-08-03T03:14:23.608Z,70.90
2018-08-03T03:17:05.384Z,71.50
2018-08-03T03:19:47.041Z,71.90
2018-08-03T03:22:28.752Z,72.40
2018-08-03T03:25:10.286Z,72.60
2018-08-03T03:27:51.610Z,72.60
2018-08-03T03:30:32.552Z,72.70
2018-08-03T03:33:14.952Z,73.00
2018-08-03T03:35:56.693Z,73.20
2018-08-03T03:38:38.031Z,73.30
2018-08-03T03:41:19.525Z,73.20
2018-08-03T03:44:01.205Z,73.10
2018-08-03T03:46:42.581Z,73.10
2018-08-03T03:49:24.654Z,72.70
2018-08-03T03:52:06.320Z,72.30
2018-08-03T03:54:48.069Z,71.20
2018-08-03T03:57:28.795Z,70.60
2018-08-03T04:05:34.418Z,70.60
2018-08-03T04:08:17.969Z,71.20
2018-08-03T04:10:59.289Z,71.30
2018-08-03T04:13:40.956Z,71.40
2018-08-03T04:16:22.619Z,70.50
2018-08-03T04:19:03.438Z,70.10
2018-08-03T04:21:45.141Z,69.80
2018-08-03T04:24:26.996Z,70.10
2018-08-03T04:27:08.439Z,70.10
2018-08-03T04:29:50.047Z,69.90
2018-08-03T04:32:31.746Z,70.10
2018-08-03T04:35:13.531Z,69.30
2018-08-03T04:37:55.153Z,68.40
2018-08-03T04:40:35.957Z,67.90
2018-08-03T04:43:17.713Z,67.80
2018-08-03T04:45:59.486Z,68.00
2018-08-03T04:48:41.195Z,68.50
2018-08-03T04:51:23.186Z,68.80
2018-08-03T04:54:05.013Z,69.00
2018-08-03T04:56:46.843Z,69.40
2018-08-03T04:59:28.129Z,69.50
2018-08-03T05:02:10.438Z,69.80
2018-08-03T05:04:52.239Z,70.00
2018-08-03T05:07:33.406Z,70.40
2018-08-03T05:10:14.979Z,70.20
2018-08-03T05:12:55.801Z,70.10
2018-08-03T05:15:36.576Z,70.10
2018-08-03T05:18:18.125Z,69.90
2018-08-03T05:23:40.465Z,69.80
2018-08-03T05:26:21.378Z,70.00
2018-08-03T05:29:02.584Z,70.30
2018-08-03T05:31:43.935Z,70.60
2018-08-03T05:34:24.845Z,70.90
2018-08-03T05:37:06.731Z,71.00
2018-08-03T05:39:48.558Z,71.20
2018-08-03T05:42:30.375Z,70.80
2018-08-03T05:45:11.881Z,69.80
2018-08-03T05:47:53.499Z,68.80
2018-08-03T05:50:34.885Z,68.30
2018-08-03T05:53:16.224Z,68.50
2018-08-03T05:55:57.995Z,68.70
2018-08-03T05:58:39.682Z,68.70
2018-08-03T06:01:21.525Z,68.40
2018-08-03T06:04:03.980Z,68.00
2018-08-03T06:06:45.711Z,67.70
2018-08-03T06:09:27.488Z,67.20
2018-08-03T06:12:09.233Z,66.70
2018-08-03T06:14:52.009Z,66.70
2018-08-03T06:17:34.622Z,66.70
2018-08-03T06:20:16.227Z,67.30
2018-08-03T06:22:57.913Z,66.70
2018-08-03T06:25:39.772Z,66.70
2018-08-03T06:28:21.493Z,66.70
2018-08-03T06:31:03.291Z,66.70
2018-08-03T06:33:44.906Z,66.50
2018-08-03T06:36:25.802Z,71.10
2018-08-03T06:39:06.524Z,75.80
2018-08-03T06:41:47.237Z,79.10
2018-08-03T06:44:28.110Z,82.30
2018-08-03T06:47:09.369Z,84.80
2018-08-03T06:49:51.751Z,85.30
2018-08-03T06:52:32.686Z,85.80
2018-08-03T06:55:14.307Z,86.40
2018-08-03T06:57:55.094Z,87.80
2018-08-03T07:00:36.650Z,87.80
2018-08-03T07:03:18.115Z,88.00
2018-08-03T07:05:59.304Z,87.80
2018-08-03T07:08:40.303Z,88.20
2018-08-03T07:11:21.849Z,88.00
2018-08-03T07:14:02.717Z,89.00
2018-08-03T07:16:44.369Z,87.40
2018-08-03T07:19:25.895Z,87.40
2018-08-03T07:22:07.577Z,87.10
2018-08-03T07:24:48.597Z,86.50
2018-08-03T07:27:29.226Z,87.10
2018-08-03T07:30:09.908Z,87.70
2018-08-03T07:32:51.584Z,87.60
2018-08-03T07:35:32.431Z,87.50
2018-08-03T07:40:55.564Z,87.20
2018-08-03T07:43:36.773Z,87.60
2018-08-03T07:46:18.503Z,87.30
2018-08-03T07:49:00.156Z,88.30
2018-08-03T07:51:41.781Z,88.20
2018-08-03T07:54:22.429Z,88.60
2018-08-03T07:57:03.363Z,88.80
2018-08-03T07:59:44.526Z,89.20
2018-08-03T08:02:25.324Z,89.10
2018-08-03T08:05:06.534Z,88.20
2018-08-03T08:07:47.805Z,88.60
2018-08-03T08:10:28.520Z,87.80
2018-08-03T08:13:10.082Z,87.80
2018-08-03T08:15:50.805Z,86.80
2018-08-03T08:18:32.495Z,86.20
2018-08-03T08:21:14.086Z,87.70
2018-08-03T08:23:54.867Z,87.90
2018-08-03T08:26:36.498Z,87.80
2018-08-03T08:29:17.261Z,87.50
2018-08-03T08:31:58.341Z,88.20
2018-08-03T08:34:39.797Z,87.20
2018-08-03T08:37:21.486Z,87.50
2018-08-03T08:40:03.244Z,87.60
2018-08-03T08:42:44.839Z,86.90
2018-08-03T08:45:25.568Z,86.10
2018-08-03T08:48:06.280Z,85.20
2018-08-03T08:50:47.961Z,84.60
2018-08-03T08:53:29.500Z,83.90
2018-08-03T08:56:11.269Z,83.10
2018-08-03T08:58:52.882Z,82.40
2018-08-03T09:01:34.419Z,80.50
2018-08-03T09:04:16.049Z,80.20
2018-08-03T09:06:57.848Z,79.80
2018-08-03T09:09:38.549Z,78.30
2018-08-03T09:12:20.295Z,76.20
2018-08-03T09:15:02.023Z,74.40
2018-08-03T09:17:43.749Z,74.60
2018-08-03T09:20:25.313Z,73.20
2018-08-03T09:23:06.891Z,74.00
2018-08-03T09:25:48.650Z,72.60
2018-08-03T09:28:30.597Z,73.30
2018-08-03T09:31:11.335Z,71.70
2018-08-03T09:33:53.000Z,71.60
2018-08-03T09:36:34.688Z,73.20
2018-08-03T09:39:15.842Z,72.80
2018-08-03T09:47:20.757Z,72.50
2018-08-03T09:50:01.511Z,72.50
2018-08-03T09:52:42.232Z,71.50
2018-08-03T09:55:23.196Z,70.70
2018-08-03T09:58:04.584Z,69.50
2018-08-03T10:00:50.428Z,67.30
2018-08-03T10:03:31.969Z,65.10
2018-08-03T10:06:13.873Z,66.70
2018-08-03T10:08:55.754Z,61.50
2018-08-03T10:11:37.059Z,59.40
2018-08-03T10:17:25.495Z,62.60
2018-08-03T10:20:06.275Z,60.30
2018-08-03T10:22:47.289Z,58.30
2018-08-03T10:25:28.271Z,57.90
2018-08-03T10:28:09.338Z,57.20
2018-08-03T10:30:50.208Z,57.80
2018-08-03T10:33:31.077Z,56.50
2018-08-03T10:36:12.029Z,57.50
2018-08-03T10:38:53.288Z,55.60
2018-08-03T10:41:34.803Z,57.50
2018-08-03T10:44:15.943Z,56.20
2018-08-03T10:46:56.824Z,58.00
2018-08-03T10:49:41.623Z,61.40
2018-08-03T10:52:23.102Z,62.30
2018-08-03T10:55:03.831Z,64.10
2018-08-03T10:57:45.686Z,65.30
2018-08-03T11:00:26.487Z,69.30
2018-08-03T11:03:08.996Z,70.80
2018-08-03T11:05:50.099Z,70.90
2018-08-03T11:08:30.883Z,72.70
2018-08-03T11:11:11.682Z,73.60
2018-08-03T11:13:52.371Z,70.30
2018-08-03T11:16:34.055Z,72.00
2018-08-03T11:19:14.800Z,68.10
2018-08-03T11:21:55.663Z,69.40
2018-08-03T11:24:37.341Z,64.30
2018-08-03T11:27:35.105Z,59.60
2018-08-03T11:30:15.843Z,63.20
2018-08-03T11:32:56.519Z,59.00
2018-08-03T11:35:38.241Z,59.20
2018-08-03T11:38:19.109Z,58.00
2018-08-03T11:41:00.856Z,60.00
2018-08-03T11:43:42.618Z,59.10
2018-08-03T11:46:24.238Z,57.50
2018-08-03T11:49:05.819Z,58.00
2018-08-03T11:51:46.656Z,58.00
2018-08-03T11:54:28.217Z,56.70
2018-08-03T11:57:11.187Z,58.70
2018-08-03T12:03:04.926Z,56.00
2018-08-03T12:05:47.006Z,56.70
2018-08-03T12:08:27.940Z,53.50
2018-08-03T12:11:08.900Z,55.20
2018-08-03T12:13:50.562Z,54.30
2018-08-03T12:16:32.110Z,56.80
2018-08-03T12:19:12.820Z,60.60
2018-08-03T12:21:53.543Z,58.00
2018-08-03T12:24:34.909Z,59.90
2018-08-03T12:27:16.711Z,58.60
2018-08-03T12:29:57.836Z,59.00
2018-08-03T12:32:39.205Z,59.80
2018-08-03T12:35:20.924Z,63.80
2018-08-03T12:38:02.598Z,64.10
2018-08-03T12:40:43.654Z,61.00
2018-08-03T12:43:25.391Z,62.50
2018-08-03T12:46:06.248Z,64.80
2018-08-03T12:48:47.817Z,64.70
2018-08-03T12:51:28.629Z,64.80
2018-08-03T12:54:10.337Z,66.40
2018-08-03T12:56:51.922Z,68.00
2018-08-03T12:59:32.667Z,66.90
2018-08-03T13:02:14.325Z,66.10
2018-08-03T13:04:55.603Z,61.50
2018-08-03T13:07:37.217Z,62.50
2018-08-03T13:10:18.970Z,61.70
2018-08-03T13:13:00.296Z,60.20
2018-08-03T13:15:41.790Z,58.40
2018-08-03T13:18:23.549Z,59.50
2018-08-03T13:21:05.001Z,60.40
2018-08-03T13:23:46.605Z,59.90
2018-08-03T13:26:27.790Z,57.20
2018-08-03T13:29:09.103Z,54.20
2018-08-03T13:31:51.038Z,55.00
2018-08-03T13:34:32.705Z,58.40
2018-08-03T13:37:14.260Z,59.90
2018-08-03T13:39:54.993Z,63.00
2018-08-03T13:42:35.884Z,61.50
2018-08-03T13:45:16.566Z,59.20
2018-08-03T13:48:11.238Z,56.50
2018-08-03T13:50:52.961Z,56.80
2018-08-03T13:53:37.020Z,58.10
2018-08-03T13:56:22.773Z,57.40
2018-08-03T13:59:04.242Z,57.70
2018-08-03T14:01:46.130Z,55.00
2018-08-03T14:04:27.779Z,54.00
2018-08-03T14:07:08.686Z,50.90
2018-08-03T14:09:50.410Z,51.30
2018-08-03T14:12:32.053Z,53.00
2018-08-03T14:15:13.343Z,50.70
2018-08-03T14:17:54.752Z,53.40
2018-08-03T14:20:35.388Z,52.70
2018-08-03T14:23:17.099Z,56.70
2018-08-03T14:25:58.785Z,58.10
2018-08-03T14:28:40.370Z,58.70
2018-08-03T14:31:21.409Z,58.40
2018-08-03T14:34:02.887Z,56.80
2018-08-03T14:36:43.658Z,57.00
2018-08-03T14:39:24.508Z,57.30
2018-08-03T14:42:05.961Z,60.40
2018-08-03T14:44:46.858Z,50.90
2018-08-03T14:47:29.004Z,51.30
2018-08-03T14:50:10.179Z,50.90
2018-08-03T14:52:51.180Z,52.70
2018-08-03T14:55:32.607Z,53.60
2018-08-03T14:58:13.724Z,51.30
2018-08-03T15:00:55.194Z,50.00
2018-08-03T15:03:36.877Z,52.00
2018-08-03T15:06:18.767Z,51.10
2018-08-03T15:09:05.847Z,49.70
2018-08-03T15:11:47.045Z,47.80
2018-08-03T15:14:28.834Z,48.70
2018-08-03T15:20:22.558Z,47.70
2018-08-03T15:23:11.899Z,49.20
2018-08-03T15:25:54.361Z,48.40
2018-08-03T15:28:35.431Z,47.30
2018-08-03T15:31:16.835Z,49.00
2018-08-03T15:33:59.581Z,48.60
2018-08-03T15:36:41.057Z,49.60
2018-08-03T15:39:21.824Z,47.20
2018-08-03T15:42:03.416Z,49.40
2018-08-03T15:44:44.256Z,48.10
2018-08-03T15:47:25.092Z,50.20
2018-08-03T15:52:48.819Z,50.00
2018-08-03T15:55:30.196Z,47.10
2018-08-03T15:58:11.100Z,47.30
2018-08-03T16:00:52.730Z,49.60
2018-08-03T16:03:34.337Z,51.00
2018-08-03T16:06:15.143Z,48.80
2018-08-03T16:08:55.947Z,48.10
2018-08-03T16:11:37.649Z,47.60
2018-08-03T16:14:19.272Z,47.50
2018-08-03T16:17:00.957Z,47.70
2018-08-03T16:19:42.589Z,47.00
2018-08-03T16:22:24.311Z,47.40
2018-08-03T16:25:05.883Z,47.60
2018-08-03T16:27:47.460Z,48.10
2018-08-03T16:30:28.340Z,48.50
2018-08-03T16:33:10.168Z,49.40
2018-08-03T16:35:51.800Z,49.40
2018-08-03T16:38:33.534Z,49.00
2018-08-03T16:41:14.995Z,50.90
2018-08-03T16:43:56.628Z,49.90
2018-08-03T16:46:38.526Z,50.50
2018-08-03T16:49:20.288Z,48.60
2018-08-03T16:52:01.917Z,50.60
2018-08-03T16:54:42.673Z,49.90
2018-08-03T16:57:24.374Z,51.40
2018-08-03T17:00:06.136Z,51.00
2018-08-03T17:02:48.014Z,51.60
2018-08-03T17:05:29.542Z,51.10
2018-08-03T17:08:11.054Z,50.40
2018-08-03T17:10:51.964Z,51.50
2018-08-03T17:13:49.837Z,51.50
2018-08-03T17:16:31.284Z,51.90
2018-08-03T17:19:13.349Z,50.60
2018-08-03T17:21:54.898Z,53.60
2018-08-03T17:24:37.027Z,54.20
2018-08-03T17:30:26.164Z,55.00
2018-08-03T17:33:08.274Z,52.60
2018-08-03T17:35:49.437Z,53.80
2018-08-03T17:38:30.981Z,55.20
2018-08-03T17:41:11.844Z,55.40
2018-08-03T17:44:05.607Z,55.40
2018-08-03T17:46:47.436Z,56.10
2018-08-03T17:49:28.180Z,55.30
2018-08-03T17:52:09.956Z,54.70
2018-08-03T17:54:50.710Z,55.90
2018-08-03T17:57:31.917Z,56.10
2018-08-03T18:00:14.088Z,56.60
2018-08-03T18:02:56.001Z,56.30
2018-08-03T18:05:36.969Z,56.40
2018-08-03T18:08:17.807Z,56.30
2018-08-03T18:10:59.757Z,55.90
2018-08-03T18:13:41.346Z,56.60
2018-08-03T18:16:22.295Z,57.40
2018-08-03T18:22:11.566Z,58.20
2018-08-03T18:24:53.376Z,58.20
2018-08-03T18:27:34.892Z,60.30
2018-08-03T18:30:16.553Z,60.00
2018-08-03T18:33:14.271Z,60.50
2018-08-03T18:35:55.135Z,60.30
2018-08-03T18:38:36.577Z,59.10
2018-08-03T18:41:19.230Z,59.00
2018-08-03T18:44:00.045Z,58.40
2018-08-03T18:46:41.117Z,57.60
2018-08-03T18:49:22.744Z,57.30
2018-08-03T18:52:21.479Z,57.40
2018-08-03T18:55:03.035Z,57.80
2018-08-03T18:57:44.555Z,58.10
2018-08-03T19:00:26.316Z,58.50
2018-08-03T19:03:08.382Z,58.70
2018-08-03T19:05:50.328Z,59.60
2018-08-03T19:08:31.693Z,59.60
2018-08-03T19:11:13.210Z,61.60
2018-08-03T19:13:54.111Z,62.60
2018-08-03T19:16:35.787Z,64.50
2018-08-03T19:19:17.302Z,65.60
2018-08-03T19:21:58.479Z,66.00
2018-08-03T19:24:46.949Z,66.10
2018-08-03T19:27:28.517Z,65.10
2018-08-03T19:30:10.261Z,64.00
2018-08-03T19:32:51.968Z,63.60
2018-08-03T19:35:33.627Z,64.10
2018-08-03T19:38:16.238Z,65.90
2018-08-03T19:44:04.892Z,65.60
2018-08-03T19:46:46.526Z,66.90
2018-08-03T19:49:28.245Z,66.90
2018-08-03T19:52:12.338Z,67.50
2018-08-03T19:54:54.134Z,67.90
2018-08-03T19:57:35.669Z,68.20
2018-08-03T20:00:17.156Z,68.70
2018-08-03T20:02:59.769Z,69.20
2018-08-03T20:05:41.355Z,70.20
2018-08-03T20:08:23.190Z,70.00
2018-08-03T20:11:25.019Z,70.90
2018-08-03T20:14:06.583Z,71.10
2018-08-03T20:16:48.692Z,71.20
2018-08-03T20:19:30.338Z,71.20
2018-08-03T20:22:11.560Z,71.20
2018-08-03T20:24:53.131Z,71.00
2018-08-03T20:27:33.980Z,70.80
2018-08-03T20:30:16.020Z,71.10
2018-08-03T20:32:57.202Z,71.40
2018-08-03T20:41:52.588Z,72.30
2018-08-03T20:44:34.274Z,70.80
2018-08-03T20:47:15.940Z,70.30
2018-08-03T20:50:02.604Z,69.60
2018-08-03T20:52:44.525Z,69.30
2018-08-03T20:55:26.087Z,68.30
2018-08-03T20:58:07.930Z,67.80
2018-08-03T21:00:49.315Z,67.10
2018-08-03T21:03:30.383Z,66.60
2018-08-03T21:06:12.057Z,66.30
2018-08-03T21:08:53.813Z,66.10
2018-08-03T21:11:35.980Z,65.60
2018-08-03T21:14:18.147Z,65.10
2018-08-03T21:16:59.991Z,64.80
2018-08-03T21:19:40.947Z,64.50
2018-08-03T21:22:23.632Z,64.40
2018-08-03T21:25:20.261Z,64.40
2018-08-03T21:28:02.778Z,64.50
2018-08-03T21:30:44.284Z,64.40
2018-08-03T21:33:25.534Z,65.30
2018-08-03T21:36:08.384Z,65.40
2018-08-03T21:38:50.228Z,64.10
2018-08-03T21:41:31.681Z,64.00
2018-08-03T21:44:13.353Z,64.60
2018-08-03T21:46:54.056Z,65.50
2018-08-03T21:49:35.647Z,63.80
2018-08-03T21:52:17.246Z,63.00
2018-08-03T21:54:58.946Z,62.80
2018-08-03T21:57:40.918Z,62.80
2018-08-03T22:00:23.301Z,63.40
2018-08-03T22:03:05.516Z,61.80
2018-08-03T22:05:50.964Z,61.40
2018-08-03T22:08:34.559Z,61.20
2018-08-03T22:11:19.175Z,61.10
2018-08-03T22:14:10.176Z,61.20
2018-08-03T22:16:51.306Z,60.90
2018-08-03T22:22:14.706Z,60.90
2018-08-03T22:24:56.111Z,60.60
2018-08-03T22:27:37.753Z,60.80
2018-08-03T22:30:19.299Z,60.30
2018-08-03T22:33:01.579Z,60.00
2018-08-03T22:35:42.804Z,60.30
2018-08-03T22:38:34.260Z,60.50
2018-08-03T22:41:15.064Z,60.50
2018-08-03T22:43:55.968Z,60.50
2018-08-03T22:46:36.699Z,60.60
2018-08-03T22:49:18.277Z,60.50
2018-08-03T22:51:59.736Z,60.50
2018-08-03T22:54:40.459Z,60.50
2018-08-03T22:57:21.261Z,60.40
2018-08-03T23:00:03.414Z,60.30
2018-08-03T23:02:44.671Z,59.90
2018-08-03T23:05:27.134Z,59.90
2018-08-03T23:08:08.262Z,59.70
2018-08-03T23:10:49.828Z,59.70
2018-08-03T23:13:31.144Z,60.30
2018-08-03T23:16:12.508Z,60.00
2018-08-03T23:18:53.752Z,59.90
2018-08-03T23:21:35.452Z,60.00
2018-08-03T23:24:16.570Z,60.00
2018-08-03T23:26:58.554Z,62.30
2018-08-03T23:29:50.111Z,72.60
2018-08-03T23:32:31.570Z,73.50
2018-08-03T23:35:12.870Z,74.10
2018-08-03T23:37:55.400Z,74.40
2018-08-03T23:49:58.377Z,71.60
2018-08-03T23:52:40.064Z,71.70
2018-08-03T23:55:21.666Z,71.70
2018-08-03T23:58:03.349Z,72.20
